sensor_id;sensor_type;location;lat;lon;timestamp;P1;durP1;ratioP1;P2;durP2;ratioP2
64686;SDS011;51113;53.646;-113.674;2023-02-08T00:01:21;2.33;;;1.50;;
64686;SDS011;51113;53.646;-113.674;2023-02-08T00:03:51;1.80;;;1.40;;
64686;SDS011;51113;53.646;-113.674;2023-02-08T00:06:20;2.40;;;1.30;;
64686;SDS011;51113;53.646;-113.674;2023-02-08T00:08:48;1.30;;;0.95;;
64686;SDS011;51113;53.646;-113.674;2023-02-08T00:11:17;1.17;;;1.00;;
64686;SDS011;51113;53.646;-113.674;2023-02-08T00:13:49;2.90;;;1.00;;
64686;SDS011;51113;53.646;-113.674;2023-02-08T00:16:18;1.35;;;1.00;;
64686;SDS011;51113;53.646;-113.674;2023-02-08T00:18:47;1.05;;;0.90;;
64686;SDS011;51113;53.646;-113.674;2023-02-08T00:21:16;3.92;;;1.08;;
64686;SDS011;51113;53.646;-113.674;2023-02-08T00:23:45;1.17;;;1.02;;
64686;SDS011;51113;53.646;-113.674;2023-02-08T00:26:14;4.47;;;1.08;;
64686;SDS011;51113;53.646;-113.674;2023-02-08T00:28:43;1.73;;;1.23;;
64686;SDS011;51113;53.646;-113.674;2023-02-08T00:31:11;1.45;;;1.10;;
64686;SDS011;51113;53.646;-113.674;2023-02-08T00:33:40;2.70;;;1.17;;
64686;SDS011;51113;53.646;-113.674;2023-02-08T00:36:09;3.75;;;1.23;;
64686;SDS011;51113;53.646;-113.674;2023-02-08T00:38:38;3.35;;;1.05;;
64686;SDS011;51113;53.646;-113.674;2023-02-08T00:41:07;2.38;;;1.20;;
64686;SDS011;51113;53.646;-113.674;2023-02-08T00:43:36;2.70;;;1.33;;
64686;SDS011;51113;53.646;-113.674;2023-02-08T00:46:05;6.93;;;1.40;;
64686;SDS011;51113;53.646;-113.674;2023-02-08T00:48:34;10.82;;;1.63;;
64686;SDS011;51113;53.646;-113.674;2023-02-08T00:51:04;6.30;;;1.52;;
64686;SDS011;51113;53.646;-113.674;2023-02-08T00:53:34;5.82;;;1.60;;
64686;SDS011;51113;53.646;-113.674;2023-02-08T00:56:05;4.00;;;1.30;;
64686;SDS011;51113;53.646;-113.674;2023-02-08T00:58:33;5.20;;;2.00;;
64686;SDS011;51113;53.646;-113.674;2023-02-08T01:01:02;5.28;;;1.52;;
64686;SDS011;51113;53.646;-113.674;2023-02-08T01:03:36;7.60;;;1.90;;
64686;SDS011;51113;53.646;-113.674;2023-02-08T01:06:07;5.35;;;1.70;;
64686;SDS011;51113;53.646;-113.674;2023-02-08T01:08:37;7.78;;;1.85;;
64686;SDS011;51113;53.646;-113.674;2023-02-08T01:11:07;5.72;;;1.90;;
64686;SDS011;51113;53.646;-113.674;2023-02-08T01:13:38;6.75;;;1.83;;
64686;SDS011;51113;53.646;-113.674;2023-02-08T01:18:37;5.28;;;1.85;;
64686;SDS011;51113;53.646;-113.674;2023-02-08T01:21:07;4.80;;;1.52;;
64686;SDS011;51113;53.646;-113.674;2023-02-08T01:23:39;4.45;;;1.85;;
64686;SDS011;51113;53.646;-113.674;2023-02-08T01:26:08;4.57;;;1.70;;
64686;SDS011;51113;53.646;-113.674;2023-02-08T01:28:37;6.07;;;1.67;;
64686;SDS011;51113;53.646;-113.674;2023-02-08T01:31:07;5.63;;;1.40;;
64686;SDS011;51113;53.646;-113.674;2023-02-08T01:33:37;6.53;;;1.40;;
64686;SDS011;51113;53.646;-113.674;2023-02-08T01:36:06;4.32;;;1.42;;
64686;SDS011;51113;53.646;-113.674;2023-02-08T01:38:34;4.93;;;1.95;;
64686;SDS011;51113;53.646;-113.674;2023-02-08T01:41:04;7.93;;;1.85;;
64686;SDS011;51113;53.646;-113.674;2023-02-08T01:43:34;6.78;;;2.05;;
64686;SDS011;51113;53.646;-113.674;2023-02-08T01:46:27;6.43;;;2.10;;
64686;SDS011;51113;53.646;-113.674;2023-02-08T01:48:56;14.75;;;2.58;;
64686;SDS011;51113;53.646;-113.674;2023-02-08T01:51:29;5.03;;;1.80;;
64686;SDS011;51113;53.646;-113.674;2023-02-08T01:54:01;4.72;;;2.10;;
64686;SDS011;51113;53.646;-113.674;2023-02-08T01:56:33;5.45;;;1.55;;
64686;SDS011;51113;53.646;-113.674;2023-02-08T01:59:03;3.30;;;1.73;;
64686;SDS011;51113;53.646;-113.674;2023-02-08T02:04:04;5.82;;;1.92;;
64686;SDS011;51113;53.646;-113.674;2023-02-08T02:06:36;6.32;;;1.70;;
64686;SDS011;51113;53.646;-113.674;2023-02-08T02:11:42;6.53;;;1.70;;
64686;SDS011;51113;53.646;-113.674;2023-02-08T02:14:11;5.35;;;1.85;;
64686;SDS011;51113;53.646;-113.674;2023-02-08T02:16:40;4.40;;;1.80;;
64686;SDS011;51113;53.646;-113.674;2023-02-08T02:19:10;5.38;;;1.92;;
64686;SDS011;51113;53.646;-113.674;2023-02-08T02:36:01;4.00;;;1.90;;
64686;SDS011;51113;53.646;-113.674;2023-02-08T02:44:16;4.80;;;2.20;;
64686;SDS011;51113;53.646;-113.674;2023-02-08T02:46:54;5.35;;;1.80;;
64686;SDS011;51113;53.646;-113.674;2023-02-08T02:50:02;4.10;;;2.03;;
64686;SDS011;51113;53.646;-113.674;2023-02-08T02:52:29;7.45;;;2.25;;
64686;SDS011;51113;53.646;-113.674;2023-02-08T02:55:06;4.13;;;2.17;;
64686;SDS011;51113;53.646;-113.674;2023-02-08T02:57:37;4.38;;;2.30;;
64686;SDS011;51113;53.646;-113.674;2023-02-08T03:00:09;6.47;;;2.20;;
64686;SDS011;51113;53.646;-113.674;2023-02-08T03:02:40;6.78;;;2.17;;
64686;SDS011;51113;53.646;-113.674;2023-02-08T03:05:11;4.97;;;2.35;;
64686;SDS011;51113;53.646;-113.674;2023-02-08T03:07:44;8.18;;;2.40;;
64686;SDS011;51113;53.646;-113.674;2023-02-08T03:11:10;6.05;;;2.15;;
64686;SDS011;51113;53.646;-113.674;2023-02-08T03:13:57;6.75;;;2.30;;
64686;SDS011;51113;53.646;-113.674;2023-02-08T03:19:38;5.22;;;2.20;;
64686;SDS011;51113;53.646;-113.674;2023-02-08T03:22:16;3.97;;;2.30;;
64686;SDS011;51113;53.646;-113.674;2023-02-08T03:24:51;4.32;;;2.10;;
64686;SDS011;51113;53.646;-113.674;2023-02-08T03:30:08;9.38;;;3.47;;
64686;SDS011;51113;53.646;-113.674;2023-02-08T03:32:50;8.15;;;3.15;;
64686;SDS011;51113;53.646;-113.674;2023-02-08T03:35:32;9.48;;;3.75;;
64686;SDS011;51113;53.646;-113.674;2023-02-08T03:38:11;6.10;;;3.20;;
64686;SDS011;51113;53.646;-113.674;2023-02-08T03:40:48;7.00;;;2.85;;
64686;SDS011;51113;53.646;-113.674;2023-02-08T03:43:23;6.97;;;2.50;;
64686;SDS011;51113;53.646;-113.674;2023-02-08T03:48:35;5.82;;;2.47;;
64686;SDS011;51113;53.646;-113.674;2023-02-08T03:51:06;4.43;;;2.38;;
64686;SDS011;51113;53.646;-113.674;2023-02-08T03:53:36;4.75;;;2.47;;
64686;SDS011;51113;53.646;-113.674;2023-02-08T03:56:12;5.47;;;2.67;;
64686;SDS011;51113;53.646;-113.674;2023-02-08T03:58:45;7.13;;;2.72;;
64686;SDS011;51113;53.646;-113.674;2023-02-08T04:01:18;10.33;;;3.00;;
64686;SDS011;51113;53.646;-113.674;2023-02-08T04:03:50;5.20;;;2.45;;
64686;SDS011;51113;53.646;-113.674;2023-02-08T04:06:20;7.30;;;2.53;;
64686;SDS011;51113;53.646;-113.674;2023-02-08T04:08:49;6.30;;;2.70;;
64686;SDS011;51113;53.646;-113.674;2023-02-08T04:11:18;5.47;;;2.67;;
64686;SDS011;51113;53.646;-113.674;2023-02-08T04:13:46;10.05;;;3.00;;
64686;SDS011;51113;53.646;-113.674;2023-02-08T04:16:15;10.13;;;2.95;;
64686;SDS011;51113;53.646;-113.674;2023-02-08T04:18:45;11.48;;;3.30;;
64686;SDS011;51113;53.646;-113.674;2023-02-08T04:21:13;7.60;;;2.95;;
64686;SDS011;51113;53.646;-113.674;2023-02-08T04:23:42;8.57;;;2.97;;
64686;SDS011;51113;53.646;-113.674;2023-02-08T04:26:10;6.95;;;2.88;;
64686;SDS011;51113;53.646;-113.674;2023-02-08T04:28:39;13.55;;;3.75;;
64686;SDS011;51113;53.646;-113.674;2023-02-08T04:31:07;8.75;;;3.40;;
64686;SDS011;51113;53.646;-113.674;2023-02-08T04:33:37;10.05;;;3.13;;
64686;SDS011;51113;53.646;-113.674;2023-02-08T04:36:05;10.55;;;3.83;;
64686;SDS011;51113;53.646;-113.674;2023-02-08T04:38:34;10.02;;;3.30;;
64686;SDS011;51113;53.646;-113.674;2023-02-08T04:41:03;9.32;;;3.80;;
64686;SDS011;51113;53.646;-113.674;2023-02-08T04:43:31;9.30;;;4.13;;
64686;SDS011;51113;53.646;-113.674;2023-02-08T04:46:00;12.00;;;3.70;;
64686;SDS011;51113;53.646;-113.674;2023-02-08T04:48:29;8.43;;;3.33;;
64686;SDS011;51113;53.646;-113.674;2023-02-08T04:50:57;8.27;;;3.50;;
64686;SDS011;51113;53.646;-113.674;2023-02-08T04:53:27;6.85;;;3.40;;
64686;SDS011;51113;53.646;-113.674;2023-02-08T04:55:55;11.30;;;3.90;;
64686;SDS011;51113;53.646;-113.674;2023-02-08T04:58:25;8.18;;;3.90;;
64686;SDS011;51113;53.646;-113.674;2023-02-08T05:00:54;8.68;;;3.67;;
64686;SDS011;51113;53.646;-113.674;2023-02-08T05:03:22;8.50;;;3.28;;
64686;SDS011;51113;53.646;-113.674;2023-02-08T05:05:57;6.35;;;3.50;;
64686;SDS011;51113;53.646;-113.674;2023-02-08T05:08:27;6.20;;;2.97;;
64686;SDS011;51113;53.646;-113.674;2023-02-08T05:10:55;7.13;;;2.65;;
64686;SDS011;51113;53.646;-113.674;2023-02-08T05:13:24;7.90;;;3.53;;
64686;SDS011;51113;53.646;-113.674;2023-02-08T05:15:53;8.23;;;2.83;;
64686;SDS011;51113;53.646;-113.674;2023-02-08T05:18:21;6.88;;;3.03;;
64686;SDS011;51113;53.646;-113.674;2023-02-08T05:20:57;7.93;;;3.60;;
64686;SDS011;51113;53.646;-113.674;2023-02-08T05:23:26;6.97;;;2.88;;
64686;SDS011;51113;53.646;-113.674;2023-02-08T05:25:56;7.97;;;2.88;;
64686;SDS011;51113;53.646;-113.674;2023-02-08T05:28:25;9.70;;;3.15;;
64686;SDS011;51113;53.646;-113.674;2023-02-08T05:30:53;7.13;;;3.03;;
64686;SDS011;51113;53.646;-113.674;2023-02-08T05:33:21;10.07;;;2.75;;
64686;SDS011;51113;53.646;-113.674;2023-02-08T05:35:50;11.68;;;3.63;;
64686;SDS011;51113;53.646;-113.674;2023-02-08T05:38:18;10.38;;;4.72;;
64686;SDS011;51113;53.646;-113.674;2023-02-08T05:40:46;17.02;;;5.10;;
64686;SDS011;51113;53.646;-113.674;2023-02-08T05:43:15;14.77;;;4.72;;
64686;SDS011;51113;53.646;-113.674;2023-02-08T05:45:44;8.43;;;3.97;;
64686;SDS011;51113;53.646;-113.674;2023-02-08T05:48:12;11.07;;;3.40;;
64686;SDS011;51113;53.646;-113.674;2023-02-08T05:50:41;6.30;;;2.33;;
64686;SDS011;51113;53.646;-113.674;2023-02-08T05:53:09;5.47;;;2.10;;
64686;SDS011;51113;53.646;-113.674;2023-02-08T05:55:38;4.47;;;2.17;;
64686;SDS011;51113;53.646;-113.674;2023-02-08T05:58:06;7.18;;;2.63;;
64686;SDS011;51113;53.646;-113.674;2023-02-08T06:00:35;4.85;;;2.00;;
64686;SDS011;51113;53.646;-113.674;2023-02-08T06:03:04;10.25;;;1.80;;
64686;SDS011;51113;53.646;-113.674;2023-02-08T06:05:33;4.30;;;2.00;;
64686;SDS011;51113;53.646;-113.674;2023-02-08T06:08:04;4.03;;;2.17;;
64686;SDS011;51113;53.646;-113.674;2023-02-08T06:10:33;7.65;;;2.75;;
64686;SDS011;51113;53.646;-113.674;2023-02-08T06:13:02;5.85;;;2.20;;
64686;SDS011;51113;53.646;-113.674;2023-02-08T06:15:31;5.90;;;2.13;;
64686;SDS011;51113;53.646;-113.674;2023-02-08T06:17:59;4.60;;;2.10;;
64686;SDS011;51113;53.646;-113.674;2023-02-08T06:20:28;6.03;;;2.30;;
64686;SDS011;51113;53.646;-113.674;2023-02-08T06:22:56;4.65;;;2.33;;
64686;SDS011;51113;53.646;-113.674;2023-02-08T06:25:25;4.22;;;2.08;;
64686;SDS011;51113;53.646;-113.674;2023-02-08T06:27:53;4.00;;;2.35;;
64686;SDS011;51113;53.646;-113.674;2023-02-08T06:30:23;7.82;;;2.42;;
64686;SDS011;51113;53.646;-113.674;2023-02-08T06:32:51;5.75;;;2.67;;
64686;SDS011;51113;53.646;-113.674;2023-02-08T06:35:19;9.48;;;2.80;;
64686;SDS011;51113;53.646;-113.674;2023-02-08T06:37:48;6.95;;;3.00;;
64686;SDS011;51113;53.646;-113.674;2023-02-08T06:40:17;10.50;;;3.13;;
64686;SDS011;51113;53.646;-113.674;2023-02-08T06:42:46;5.32;;;2.47;;
64686;SDS011;51113;53.646;-113.674;2023-02-08T06:45:15;5.70;;;2.28;;
64686;SDS011;51113;53.646;-113.674;2023-02-08T06:47:44;6.60;;;2.60;;
64686;SDS011;51113;53.646;-113.674;2023-02-08T06:50:12;7.13;;;2.33;;
64686;SDS011;51113;53.646;-113.674;2023-02-08T06:52:41;4.68;;;2.50;;
64686;SDS011;51113;53.646;-113.674;2023-02-08T06:55:10;5.05;;;2.05;;
64686;SDS011;51113;53.646;-113.674;2023-02-08T06:57:39;4.00;;;1.60;;
64686;SDS011;51113;53.646;-113.674;2023-02-08T07:00:07;6.07;;;1.80;;
64686;SDS011;51113;53.646;-113.674;2023-02-08T07:02:36;6.80;;;2.53;;
64686;SDS011;51113;53.646;-113.674;2023-02-08T07:05:05;9.32;;;3.25;;
64686;SDS011;51113;53.646;-113.674;2023-02-08T07:07:34;11.13;;;3.78;;
64686;SDS011;51113;53.646;-113.674;2023-02-08T07:10:03;12.43;;;4.60;;
64686;SDS011;51113;53.646;-113.674;2023-02-08T07:12:32;9.13;;;3.60;;
64686;SDS011;51113;53.646;-113.674;2023-02-08T07:15:04;7.68;;;2.40;;
64686;SDS011;51113;53.646;-113.674;2023-02-08T07:17:33;2.63;;;1.80;;
64686;SDS011;51113;53.646;-113.674;2023-02-08T07:20:01;4.47;;;2.00;;
64686;SDS011;51113;53.646;-113.674;2023-02-08T07:22:30;5.63;;;2.20;;
64686;SDS011;51113;53.646;-113.674;2023-02-08T07:24:58;6.72;;;2.13;;
64686;SDS011;51113;53.646;-113.674;2023-02-08T07:27:27;3.05;;;2.08;;
64686;SDS011;51113;53.646;-113.674;2023-02-08T07:29:56;3.00;;;1.77;;
64686;SDS011;51113;53.646;-113.674;2023-02-08T07:32:24;3.28;;;2.08;;
64686;SDS011;51113;53.646;-113.674;2023-02-08T07:34:53;6.32;;;2.47;;
64686;SDS011;51113;53.646;-113.674;2023-02-08T07:37:21;3.00;;;1.90;;
64686;SDS011;51113;53.646;-113.674;2023-02-08T07:39:50;9.82;;;2.50;;
64686;SDS011;51113;53.646;-113.674;2023-02-08T07:42:19;3.42;;;2.00;;
64686;SDS011;51113;53.646;-113.674;2023-02-08T07:44:47;5.53;;;2.47;;
64686;SDS011;51113;53.646;-113.674;2023-02-08T07:47:17;4.90;;;2.20;;
64686;SDS011;51113;53.646;-113.674;2023-02-08T07:49:46;3.50;;;2.05;;
64686;SDS011;51113;53.646;-113.674;2023-02-08T07:52:13;5.78;;;2.40;;
64686;SDS011;51113;53.646;-113.674;2023-02-08T07:54:42;3.95;;;2.30;;
64686;SDS011;51113;53.646;-113.674;2023-02-08T07:57:10;4.32;;;2.15;;
64686;SDS011;51113;53.646;-113.674;2023-02-08T07:59:39;4.93;;;2.30;;
64686;SDS011;51113;53.646;-113.674;2023-02-08T08:02:08;3.40;;;2.05;;
64686;SDS011;51113;53.646;-113.674;2023-02-08T08:04:36;4.55;;;2.00;;
64686;SDS011;51113;53.646;-113.674;2023-02-08T08:07:05;4.82;;;1.75;;
64686;SDS011;51113;53.646;-113.674;2023-02-08T08:09:34;2.65;;;1.55;;
64686;SDS011;51113;53.646;-113.674;2023-02-08T08:12:03;2.70;;;1.40;;
64686;SDS011;51113;53.646;-113.674;2023-02-08T08:14:31;3.22;;;1.60;;
64686;SDS011;51113;53.646;-113.674;2023-02-08T08:16:59;2.95;;;1.70;;
64686;SDS011;51113;53.646;-113.674;2023-02-08T08:19:28;3.30;;;1.73;;
64686;SDS011;51113;53.646;-113.674;2023-02-08T08:21:57;3.38;;;1.65;;
64686;SDS011;51113;53.646;-113.674;2023-02-08T08:24:25;2.70;;;1.60;;
64686;SDS011;51113;53.646;-113.674;2023-02-08T08:26:54;9.15;;;3.10;;
64686;SDS011;51113;53.646;-113.674;2023-02-08T08:29:22;8.88;;;4.13;;
64686;SDS011;51113;53.646;-113.674;2023-02-08T08:31:51;12.27;;;4.85;;
64686;SDS011;51113;53.646;-113.674;2023-02-08T08:34:20;8.40;;;3.47;;
64686;SDS011;51113;53.646;-113.674;2023-02-08T08:36:56;4.20;;;2.00;;
64686;SDS011;51113;53.646;-113.674;2023-02-08T08:39:28;4.20;;;1.80;;
64686;SDS011;51113;53.646;-113.674;2023-02-08T08:41:58;3.10;;;1.52;;
64686;SDS011;51113;53.646;-113.674;2023-02-08T08:44:27;3.65;;;1.50;;
64686;SDS011;51113;53.646;-113.674;2023-02-08T08:46:56;3.00;;;1.48;;
64686;SDS011;51113;53.646;-113.674;2023-02-08T08:49:25;2.40;;;1.48;;
64686;SDS011;51113;53.646;-113.674;2023-02-08T08:51:54;5.22;;;1.80;;
64686;SDS011;51113;53.646;-113.674;2023-02-08T08:54:23;2.13;;;1.52;;
64686;SDS011;51113;53.646;-113.674;2023-02-08T08:56:52;3.13;;;1.58;;
64686;SDS011;51113;53.646;-113.674;2023-02-08T08:59:20;3.88;;;1.52;;
64686;SDS011;51113;53.646;-113.674;2023-02-08T09:01:49;3.28;;;1.88;;
64686;SDS011;51113;53.646;-113.674;2023-02-08T09:04:18;4.97;;;2.53;;
64686;SDS011;51113;53.646;-113.674;2023-02-08T09:06:49;9.48;;;2.63;;
64686;SDS011;51113;53.646;-113.674;2023-02-08T09:09:21;6.50;;;2.53;;
64686;SDS011;51113;53.646;-113.674;2023-02-08T09:11:49;6.25;;;2.47;;
64686;SDS011;51113;53.646;-113.674;2023-02-08T09:14:18;2.22;;;1.55;;
64686;SDS011;51113;53.646;-113.674;2023-02-08T09:16:47;3.97;;;1.45;;
64686;SDS011;51113;53.646;-113.674;2023-02-08T09:19:15;4.40;;;1.52;;
64686;SDS011;51113;53.646;-113.674;2023-02-08T09:21:44;1.92;;;1.10;;
64686;SDS011;51113;53.646;-113.674;2023-02-08T09:24:13;1.23;;;1.00;;
64686;SDS011;51113;53.646;-113.674;2023-02-08T09:26:43;1.63;;;1.08;;
64686;SDS011;51113;53.646;-113.674;2023-02-08T09:29:12;1.95;;;1.15;;
64686;SDS011;51113;53.646;-113.674;2023-02-08T09:31:40;3.03;;;1.23;;
64686;SDS011;51113;53.646;-113.674;2023-02-08T09:34:09;3.35;;;1.25;;
64686;SDS011;51113;53.646;-113.674;2023-02-08T09:36:38;4.95;;;1.40;;
64686;SDS011;51113;53.646;-113.674;2023-02-08T09:39:15;3.10;;;1.40;;
64686;SDS011;51113;53.646;-113.674;2023-02-08T09:49:53;1.65;;;1.17;;
64686;SDS011;51113;53.646;-113.674;2023-02-08T09:52:46;3.50;;;1.50;;
64686;SDS011;51113;53.646;-113.674;2023-02-08T09:55:37;3.13;;;1.83;;
64686;SDS011;51113;53.646;-113.674;2023-02-08T09:58:26;3.85;;;1.77;;
64686;SDS011;51113;53.646;-113.674;2023-02-08T10:01:18;3.40;;;1.77;;
64686;SDS011;51113;53.646;-113.674;2023-02-08T10:03:54;2.40;;;1.42;;
64686;SDS011;51113;53.646;-113.674;2023-02-08T10:06:28;3.15;;;1.70;;
64686;SDS011;51113;53.646;-113.674;2023-02-08T10:08:58;3.78;;;1.80;;
64686;SDS011;51113;53.646;-113.674;2023-02-08T10:16:58;3.05;;;1.70;;
64686;SDS011;51113;53.646;-113.674;2023-02-08T10:35:16;1.98;;;1.52;;
64686;SDS011;51113;53.646;-113.674;2023-02-08T10:37:54;2.70;;;1.70;;
64686;SDS011;51113;53.646;-113.674;2023-02-08T10:51:44;4.47;;;1.63;;
64686;SDS011;51113;53.646;-113.674;2023-02-08T10:54:14;2.88;;;1.98;;
64686;SDS011;51113;53.646;-113.674;2023-02-08T11:01:53;3.30;;;1.70;;
64686;SDS011;51113;53.646;-113.674;2023-02-08T11:04:24;10.63;;;1.90;;
64686;SDS011;51113;53.646;-113.674;2023-02-08T11:06:53;2.50;;;1.60;;
64686;SDS011;51113;53.646;-113.674;2023-02-08T11:09:28;4.53;;;2.13;;
64686;SDS011;51113;53.646;-113.674;2023-02-08T11:11:59;4.70;;;2.25;;
64686;SDS011;51113;53.646;-113.674;2023-02-08T11:14:29;8.60;;;2.25;;
64686;SDS011;51113;53.646;-113.674;2023-02-08T11:17:21;4.63;;;2.17;;
64686;SDS011;51113;53.646;-113.674;2023-02-08T11:19:55;3.72;;;1.90;;
64686;SDS011;51113;53.646;-113.674;2023-02-08T11:22:24;3.10;;;1.80;;
64686;SDS011;51113;53.646;-113.674;2023-02-08T11:24:58;4.38;;;1.98;;
64686;SDS011;51113;53.646;-113.674;2023-02-08T11:32:41;2.47;;;1.48;;
64686;SDS011;51113;53.646;-113.674;2023-02-08T11:37:48;3.30;;;1.70;;
64686;SDS011;51113;53.646;-113.674;2023-02-08T11:40:34;7.43;;;2.83;;
64686;SDS011;51113;53.646;-113.674;2023-02-08T11:43:04;3.22;;;1.98;;
64686;SDS011;51113;53.646;-113.674;2023-02-08T11:45:34;2.72;;;1.63;;
64686;SDS011;51113;53.646;-113.674;2023-02-08T11:48:03;3.05;;;1.95;;
64686;SDS011;51113;53.646;-113.674;2023-02-08T11:51:07;6.72;;;2.83;;
64686;SDS011;51113;53.646;-113.674;2023-02-08T11:53:38;4.63;;;2.30;;
64686;SDS011;51113;53.646;-113.674;2023-02-08T11:56:18;5.90;;;2.63;;
64686;SDS011;51113;53.646;-113.674;2023-02-08T12:01:26;5.13;;;2.58;;
64686;SDS011;51113;53.646;-113.674;2023-02-08T12:03:57;5.93;;;2.65;;
64686;SDS011;51113;53.646;-113.674;2023-02-08T12:07:13;4.10;;;2.47;;
64686;SDS011;51113;53.646;-113.674;2023-02-08T12:10:05;4.00;;;2.40;;
64686;SDS011;51113;53.646;-113.674;2023-02-08T12:15:20;4.88;;;2.22;;
64686;SDS011;51113;53.646;-113.674;2023-02-08T12:21:35;7.15;;;2.72;;
64686;SDS011;51113;53.646;-113.674;2023-02-08T12:38:37;4.88;;;1.98;;
64686;SDS011;51113;53.646;-113.674;2023-02-08T12:45:03;4.32;;;2.20;;
64686;SDS011;51113;53.646;-113.674;2023-02-08T12:51:01;4.30;;;2.22;;
64686;SDS011;51113;53.646;-113.674;2023-02-08T12:53:40;4.22;;;2.10;;
64686;SDS011;51113;53.646;-113.674;2023-02-08T12:56:13;4.00;;;2.20;;
64686;SDS011;51113;53.646;-113.674;2023-02-08T12:58:49;4.85;;;2.20;;
64686;SDS011;51113;53.646;-113.674;2023-02-08T13:01:34;4.77;;;2.33;;
64686;SDS011;51113;53.646;-113.674;2023-02-08T13:04:14;3.72;;;2.13;;
64686;SDS011;51113;53.646;-113.674;2023-02-08T13:06:52;4.53;;;1.98;;
64686;SDS011;51113;53.646;-113.674;2023-02-08T13:09:28;6.10;;;2.63;;
64686;SDS011;51113;53.646;-113.674;2023-02-08T13:12:24;5.35;;;1.90;;
64686;SDS011;51113;53.646;-113.674;2023-02-08T13:15:05;8.85;;;2.28;;
64686;SDS011;51113;53.646;-113.674;2023-02-08T13:18:03;3.65;;;1.80;;
64686;SDS011;51113;53.646;-113.674;2023-02-08T13:26:11;3.97;;;2.20;;
64686;SDS011;51113;53.646;-113.674;2023-02-08T13:28:49;3.58;;;1.77;;
64686;SDS011;51113;53.646;-113.674;2023-02-08T13:31:22;4.13;;;2.15;;
64686;SDS011;51113;53.646;-113.674;2023-02-08T13:34:05;4.13;;;1.83;;
64686;SDS011;51113;53.646;-113.674;2023-02-08T13:36:55;2.97;;;1.85;;
64686;SDS011;51113;53.646;-113.674;2023-02-08T13:41:58;2.80;;;1.73;;
64686;SDS011;51113;53.646;-113.674;2023-02-08T13:44:34;3.75;;;1.88;;
64686;SDS011;51113;53.646;-113.674;2023-02-08T13:47:05;4.15;;;2.13;;
64686;SDS011;51113;53.646;-113.674;2023-02-08T13:49:42;5.18;;;2.30;;
64686;SDS011;51113;53.646;-113.674;2023-02-08T13:58:01;4.77;;;2.07;;
64686;SDS011;51113;53.646;-113.674;2023-02-08T14:00:34;4.85;;;2.33;;
64686;SDS011;51113;53.646;-113.674;2023-02-08T14:11:05;5.35;;;2.10;;
64686;SDS011;51113;53.646;-113.674;2023-02-08T14:13:45;4.80;;;2.28;;
64686;SDS011;51113;53.646;-113.674;2023-02-08T14:18:57;5.35;;;2.20;;
64686;SDS011;51113;53.646;-113.674;2023-02-08T14:21:38;4.25;;;2.00;;
64686;SDS011;51113;53.646;-113.674;2023-02-08T14:30:00;3.67;;;2.00;;
64686;SDS011;51113;53.646;-113.674;2023-02-08T14:32:37;4.68;;;2.28;;
64686;SDS011;51113;53.646;-113.674;2023-02-08T14:35:08;4.18;;;2.10;;
64686;SDS011;51113;53.646;-113.674;2023-02-08T14:37:49;5.13;;;2.00;;
64686;SDS011;51113;53.646;-113.674;2023-02-08T14:40:30;5.13;;;2.03;;
64686;SDS011;51113;53.646;-113.674;2023-02-08T14:43:02;5.75;;;2.38;;
64686;SDS011;51113;53.646;-113.674;2023-02-08T14:45:45;3.83;;;2.15;;
64686;SDS011;51113;53.646;-113.674;2023-02-08T14:48:27;3.95;;;2.20;;
64686;SDS011;51113;53.646;-113.674;2023-02-08T14:59:06;6.72;;;2.47;;
64686;SDS011;51113;53.646;-113.674;2023-02-08T15:01:45;6.68;;;2.33;;
64686;SDS011;51113;53.646;-113.674;2023-02-08T15:04:20;5.00;;;2.35;;
64686;SDS011;51113;53.646;-113.674;2023-02-08T15:09:35;7.28;;;2.53;;
64686;SDS011;51113;53.646;-113.674;2023-02-08T15:12:12;5.38;;;2.53;;
64686;SDS011;51113;53.646;-113.674;2023-02-08T15:14:49;3.77;;;2.10;;
64686;SDS011;51113;53.646;-113.674;2023-02-08T15:17:36;3.95;;;2.28;;
64686;SDS011;51113;53.646;-113.674;2023-02-08T15:20:27;5.47;;;2.28;;
64686;SDS011;51113;53.646;-113.674;2023-02-08T15:22:59;5.05;;;2.70;;
64686;SDS011;51113;53.646;-113.674;2023-02-08T15:25:30;5.10;;;2.15;;
64686;SDS011;51113;53.646;-113.674;2023-02-08T15:28:01;7.28;;;2.00;;
64686;SDS011;51113;53.646;-113.674;2023-02-08T15:33:13;4.93;;;2.10;;
64686;SDS011;51113;53.646;-113.674;2023-02-08T15:35:44;4.30;;;2.15;;
64686;SDS011;51113;53.646;-113.674;2023-02-08T15:38:18;5.97;;;2.50;;
64686;SDS011;51113;53.646;-113.674;2023-02-08T15:41:05;5.45;;;2.63;;
64686;SDS011;51113;53.646;-113.674;2023-02-08T15:43:35;4.30;;;2.42;;
64686;SDS011;51113;53.646;-113.674;2023-02-08T15:46:05;7.90;;;2.78;;
64686;SDS011;51113;53.646;-113.674;2023-02-08T15:48:44;7.30;;;2.50;;
64686;SDS011;51113;53.646;-113.674;2023-02-08T15:51:13;3.92;;;2.05;;
64686;SDS011;51113;53.646;-113.674;2023-02-08T15:53:43;5.75;;;2.22;;
64686;SDS011;51113;53.646;-113.674;2023-02-08T15:56:15;9.52;;;2.50;;
64686;SDS011;51113;53.646;-113.674;2023-02-08T15:59:02;3.58;;;2.08;;
64686;SDS011;51113;53.646;-113.674;2023-02-08T16:01:31;4.60;;;2.35;;
64686;SDS011;51113;53.646;-113.674;2023-02-08T16:04:02;6.28;;;1.92;;
64686;SDS011;51113;53.646;-113.674;2023-02-08T16:06:40;3.88;;;1.98;;
64686;SDS011;51113;53.646;-113.674;2023-02-08T16:09:18;3.20;;;2.10;;
64686;SDS011;51113;53.646;-113.674;2023-02-08T16:11:55;7.38;;;2.55;;
64686;SDS011;51113;53.646;-113.674;2023-02-08T16:14:26;4.35;;;2.10;;
64686;SDS011;51113;53.646;-113.674;2023-02-08T16:17:25;4.35;;;1.98;;
64686;SDS011;51113;53.646;-113.674;2023-02-08T16:22:59;4.28;;;2.05;;
64686;SDS011;51113;53.646;-113.674;2023-02-08T16:28:02;3.83;;;1.80;;
64686;SDS011;51113;53.646;-113.674;2023-02-08T16:30:32;4.65;;;2.33;;
64686;SDS011;51113;53.646;-113.674;2023-02-08T16:33:05;3.33;;;2.03;;
64686;SDS011;51113;53.646;-113.674;2023-02-08T16:35:35;4.60;;;2.20;;
64686;SDS011;51113;53.646;-113.674;2023-02-08T16:38:06;5.05;;;1.73;;
64686;SDS011;51113;53.646;-113.674;2023-02-08T16:45:44;5.75;;;2.47;;
64686;SDS011;51113;53.646;-113.674;2023-02-08T16:48:26;2.70;;;1.88;;
64686;SDS011;51113;53.646;-113.674;2023-02-08T16:50:59;3.92;;;2.05;;
64686;SDS011;51113;53.646;-113.674;2023-02-08T16:53:29;4.00;;;1.90;;
64686;SDS011;51113;53.646;-113.674;2023-02-08T16:56:08;5.32;;;2.20;;
64686;SDS011;51113;53.646;-113.674;2023-02-08T16:58:38;3.50;;;1.90;;
64686;SDS011;51113;53.646;-113.674;2023-02-08T17:01:08;3.60;;;2.17;;
64686;SDS011;51113;53.646;-113.674;2023-02-08T17:03:39;4.13;;;1.90;;
64686;SDS011;51113;53.646;-113.674;2023-02-08T17:06:17;4.88;;;2.00;;
64686;SDS011;51113;53.646;-113.674;2023-02-08T17:08:52;3.97;;;1.95;;
64686;SDS011;51113;53.646;-113.674;2023-02-08T17:11:21;3.85;;;2.42;;
64686;SDS011;51113;53.646;-113.674;2023-02-08T17:13:50;5.72;;;1.98;;
64686;SDS011;51113;53.646;-113.674;2023-02-08T17:16:22;3.50;;;2.40;;
64686;SDS011;51113;53.646;-113.674;2023-02-08T17:21:21;4.35;;;2.00;;
64686;SDS011;51113;53.646;-113.674;2023-02-08T17:23:49;5.22;;;2.30;;
64686;SDS011;51113;53.646;-113.674;2023-02-08T17:26:19;4.40;;;2.40;;
64686;SDS011;51113;53.646;-113.674;2023-02-08T17:28:56;5.10;;;2.15;;
64686;SDS011;51113;53.646;-113.674;2023-02-08T17:31:28;4.13;;;2.33;;
64686;SDS011;51113;53.646;-113.674;2023-02-08T17:33:57;4.00;;;2.03;;
64686;SDS011;51113;53.646;-113.674;2023-02-08T17:36:31;4.30;;;2.30;;